Time;durP1;ratioP1;P1;durP2;ratioP2;P2;SDS_P1;SDS_P2;PMS_P1;PMS_P2;Temp;Humidity;BMP_temperature;BMP_pressure;BME280_temperature;BME280_humidity;BME280_pressure;Samples;Min_cycle;Max_cycle;Signal;HPM_P1;HPM_P2
2021/11/26 00:01:32;;;;;;;2.80;1.00;;;3.70;94.40;;;;;;5064254;28;20427;-77
2021/11/26 00:04:00;;;;;;;2.63;0.90;;;3.70;94.40;;;;;;5048070;28;20041;-78
2021/11/26 00:06:28;;;;;;;4.43;0.98;;;3.70;94.40;;;;;;5031815;28;20044;-77
2021/11/26 00:08:59;;;;;;;2.45;0.70;;;3.70;94.40;;;;;;5049316;28;20048;-78
2021/11/26 00:11:27;;;;;;;5.30;1.25;;;3.70;94.40;;;;;;5064967;28;20051;-77
2021/11/26 00:14:19;;;;;;;3.17;0.90;;;3.70;94.40;;;;;;5065588;28;20071;-78
2021/11/26 00:16:43;;;;;;;3.20;1.23;;;3.70;94.50;;;;;;5052600;28;20048;-77
2021/11/26 00:19:11;;;;;;;3.30;1.85;;;3.80;94.40;;;;;;5049193;28;20041;-78
2021/11/26 00:21:39;;;;;;;4.10;1.08;;;3.80;94.40;;;;;;5048758;28;20534;-78
2021/11/26 00:24:08;;;;;;;3.35;0.80;;;3.80;94.60;;;;;;5060344;28;20078;-77
2021/11/26 00:26:36;;;;;;;3.30;1.25;;;3.90;94.40;;;;;;5044568;28;20076;-77
2021/11/26 00:29:04;;;;;;;3.28;0.80;;;3.90;94.40;;;;;;5061609;28;20055;-77
2021/11/26 00:31:31;;;;;;;2.78;0.88;;;3.90;94.40;;;;;;5061204;28;20102;-77
2021/11/26 00:33:59;;;;;;;4.75;1.30;;;3.90;94.40;;;;;;5061200;28;20118;-77
2021/11/26 00:36:26;;;;;;;5.28;1.50;;;4.00;94.40;;;;;;5044715;28;20706;-77
2021/11/26 00:38:53;;;;;;;3.65;1.00;;;4.00;94.40;;;;;;5060776;28;20028;-77
2021/11/26 00:41:20;;;;;;;2.83;1.00;;;4.00;94.60;;;;;;5062695;28;20179;-77
2021/11/26 00:43:47;;;;;;;2.78;1.08;;;4.10;94.40;;;;;;5064789;28;20064;-77
2021/11/26 00:46:14;;;;;;;6.35;1.70;;;4.10;94.40;;;;;;5029314;28;20064;-77
2021/11/26 00:48:41;;;;;;;5.63;1.58;;;4.10;94.30;;;;;;5045828;28;20048;-77
2021/11/26 00:51:09;;;;;;;2.30;0.90;;;4.20;94.30;;;;;;5044327;28;20133;-78
2021/11/26 00:53:36;;;;;;;2.65;1.08;;;4.20;94.30;;;;;;5028439;28;20087;-77
2021/11/26 00:56:04;;;;;;;3.42;0.90;;;4.20;94.30;;;;;;5048039;28;20045;-77
2021/11/26 00:58:32;;;;;;;2.80;0.98;;;4.20;94.30;;;;;;5047322;28;20118;-78
2021/11/26 01:00:59;;;;;;;3.25;1.00;;;4.30;94.30;;;;;;5064794;28;20044;-77
2021/11/26 01:03:26;;;;;;;4.13;1.10;;;4.30;94.30;;;;;;5063917;28;20048;-77
2021/11/26 01:05:54;;;;;;;3.90;1.40;;;4.30;94.30;;;;;;5048109;28;20048;-77
2021/11/26 01:08:21;;;;;;;4.22;1.10;;;4.30;94.20;;;;;;5063588;28;20489;-77
2021/11/26 01:10:50;;;;;;;4.80;1.20;;;4.30;94.20;;;;;;5048254;28;20141;-77
2021/11/26 01:13:18;;;;;;;3.00;0.90;;;4.40;94.20;;;;;;5059160;28;20048;-77
2021/11/26 01:15:51;;;;;;;3.42;0.80;;;4.40;94.20;;;;;;5102293;28;20055;-77
2021/11/26 01:18:19;;;;;;;3.00;0.95;;;4.40;94.20;;;;;;5069615;28;20572;-77
2021/11/26 01:20:47;;;;;;;1.80;0.93;;;4.40;94.20;;;;;;5068523;28;20094;-77
2021/11/26 01:23:15;;;;;;;2.38;1.00;;;4.40;94.20;;;;;;5067572;28;20131;-77
2021/11/26 01:25:42;;;;;;;3.15;0.90;;;4.40;94.20;;;;;;5085157;28;20114;-77
2021/11/26 01:28:10;;;;;;;3.60;1.65;;;4.40;94.20;;;;;;5050564;28;20695;-77
2021/11/26 01:30:41;;;;;;;1.98;0.70;;;4.40;94.20;;;;;;5051810;28;20180;-77
2021/11/26 01:33:10;;;;;;;3.83;1.20;;;4.40;94.20;;;;;;5066744;28;20076;-78
2021/11/26 01:35:38;;;;;;;2.40;0.85;;;4.40;94.20;;;;;;5043659;28;20060;-77
2021/11/26 01:38:07;;;;;;;2.58;0.73;;;4.40;94.20;;;;;;5068265;28;20044;-77
2021/11/26 01:40:40;;;;;;;2.47;0.80;;;4.40;94.20;;;;;;5051149;28;20052;-77
2021/11/26 01:43:09;;;;;;;2.72;0.77;;;4.40;94.20;;;;;;5067327;28;20033;-77
2021/11/26 01:45:44;;;;;;;2.50;1.00;;;4.40;94.20;;;;;;5068621;28;20419;-77
2021/11/26 01:48:12;;;;;;;2.95;0.98;;;4.50;94.20;;;;;;5083685;28;20075;-77
2021/11/26 01:50:39;;;;;;;3.13;0.95;;;4.50;94.20;;;;;;5067306;28;20064;-77
2021/11/26 01:53:07;;;;;;;2.28;0.88;;;4.50;94.20;;;;;;5050209;28;20090;-77
2021/11/26 01:55:34;;;;;;;3.60;0.80;;;4.50;94.20;;;;;;5052347;28;20744;-77
2021/11/26 01:58:03;;;;;;;6.05;0.98;;;4.50;94.20;;;;;;5066900;28;20433;-77
2021/11/26 02:00:32;;;;;;;2.58;0.90;;;4.50;94.20;;;;;;5040854;28;20170;-77
2021/11/26 02:03:02;;;;;;;3.53;1.20;;;4.60;94.20;;;;;;5067859;28;20067;-77
2021/11/26 02:05:30;;;;;;;2.72;1.10;;;4.60;94.20;;;;;;5068357;28;20094;-77
2021/11/26 02:07:57;;;;;;;3.90;0.93;;;4.60;94.20;;;;;;5051227;28;20047;-77
2021/11/26 02:10:24;;;;;;;3.55;1.13;;;4.60;94.20;;;;;;5057494;28;20068;-77
2021/11/26 02:12:52;;;;;;;3.40;1.23;;;4.60;94.10;;;;;;5052390;28;20413;-77
2021/11/26 02:15:22;;;;;;;2.67;0.98;;;4.60;94.10;;;;;;5067580;28;20053;-77
2021/11/26 02:17:50;;;;;;;1.90;0.82;;;4.70;94.10;;;;;;5050678;28;20052;-77
2021/11/26 02:20:20;;;;;;;1.83;0.70;;;4.60;94.10;;;;;;5066947;28;20464;-77
2021/11/26 02:22:49;;;;;;;2.90;1.13;;;4.70;94.10;;;;;;5066111;28;20044;-77
2021/11/26 02:25:17;;;;;;;3.25;0.93;;;4.70;94.10;;;;;;5053318;28;21328;-77
2021/11/26 02:27:46;;;;;;;2.13;0.70;;;4.70;94.10;;;;;;5070982;28;20480;-77
2021/11/26 02:30:16;;;;;;;2.33;0.77;;;4.70;94.10;;;;;;5070003;28;20585;-77
2021/11/26 02:32:58;;;;;;;2.40;0.90;;;4.70;94.40;;;;;;5059313;28;20131;-77
2021/11/26 02:35:27;;;;;;;2.85;0.98;;;4.70;94.10;;;;;;5071314;28;20492;-77
2021/11/26 02:37:55;;;;;;;1.98;0.63;;;4.80;94.10;;;;;;5053706;28;20127;-77
2021/11/26 02:40:24;;;;;;;1.80;0.50;;;4.80;94.10;;;;;;5067394;28;20044;-77
2021/11/26 02:42:54;;;;;;;3.50;0.47;;;4.80;94.10;;;;;;5033496;28;20040;-78
2021/11/26 02:45:23;;;;;;;1.25;0.50;;;4.90;94.10;;;;;;5050448;28;20046;-77
2021/11/26 02:47:50;;;;;;;2.05;0.50;;;4.90;94.10;;;;;;5050149;28;20102;-77
2021/11/26 02:50:19;;;;;;;2.13;0.80;;;5.00;94.10;;;;;;5066820;28;20121;-78
2021/11/26 02:52:46;;;;;;;0.88;0.30;;;5.00;94.00;;;;;;5033733;28;20452;-79
2021/11/26 02:55:17;;;;;;;0.80;0.30;;;5.00;94.00;;;;;;5066167;28;20056;-78
2021/11/26 02:57:47;;;;;;;1.05;0.30;;;5.00;94.00;;;;;;5082929;28;20092;-79
2021/11/26 03:00:17;;;;;;;1.40;0.55;;;5.00;94.00;;;;;;5065418;28;20147;-79
2021/11/26 03:02:47;;;;;;;1.30;0.40;;;5.00;94.00;;;;;;5048339;28;20056;-79
2021/11/26 03:05:16;;;;;;;1.00;0.32;;;5.00;94.00;;;;;;5049186;28;20040;-79
2021/11/26 03:07:44;;;;;;;1.55;0.43;;;5.00;94.00;;;;;;5064270;28;20490;-79
2021/11/26 03:10:16;;;;;;;1.33;0.40;;;5.00;94.00;;;;;;5046591;28;20048;-79
2021/11/26 03:12:55;;;;;;;1.85;0.45;;;5.00;94.00;;;;;;5045721;28;20054;-79
2021/11/26 03:15:24;;;;;;;1.45;0.30;;;5.00;94.10;;;;;;5063917;28;20201;-79
2021/11/26 03:17:52;;;;;;;0.60;0.20;;;5.00;94.10;;;;;;5030807;28;20123;-78
2021/11/26 03:20:19;;;;;;;0.82;0.30;;;5.00;94.10;;;;;;5046358;28;20045;-79
2021/11/26 03:22:46;;;;;;;0.95;0.50;;;5.00;94.10;;;;;;5064951;28;20520;-79
2021/11/26 03:25:14;;;;;;;1.10;0.50;;;5.00;94.10;;;;;;5061601;28;20054;-78
2021/11/26 03:27:42;;;;;;;1.58;0.73;;;5.00;94.10;;;;;;5059919;28;20056;-79
2021/11/26 03:30:11;;;;;;;1.63;0.95;;;4.90;94.10;;;;;;5044134;28;20480;-79
2021/11/26 03:32:38;;;;;;;3.47;1.52;;;5.00;94.10;;;;;;5029382;28;20505;-78
2021/11/26 03:35:06;;;;;;;3.70;1.35;;;5.00;94.10;;;;;;5064727;28;20052;-77
2021/11/26 03:37:34;;;;;;;2.28;1.27;;;4.90;94.10;;;;;;5065949;28;20037;-78
2021/11/26 03:40:03;;;;;;;2.80;1.20;;;4.90;94.20;;;;;;5049209;28;20036;-78
2021/11/26 03:42:30;;;;;;;3.35;1.30;;;4.90;94.20;;;;;;5049372;28;20062;-78
2021/11/26 03:44:57;;;;;;;4.00;1.25;;;4.90;94.20;;;;;;5065922;28;20078;-78
2021/11/26 03:47:25;;;;;;;3.10;1.60;;;4.90;94.20;;;;;;5047701;28;20055;-77
2021/11/26 03:49:53;;;;;;;2.70;1.13;;;4.90;94.20;;;;;;5066438;28;20037;-78
2021/11/26 03:52:20;;;;;;;2.88;1.65;;;4.90;94.20;;;;;;5054394;28;20176;-78
2021/11/26 03:54:47;;;;;;;2.83;1.77;;;4.90;94.30;;;;;;5049115;28;20048;-78
2021/11/26 03:57:14;;;;;;;3.97;1.85;;;4.90;94.20;;;;;;5049431;28;20056;-78
2021/11/26 03:59:42;;;;;;;5.35;1.88;;;4.90;94.30;;;;;;5049208;28;20048;-78
2021/11/26 04:02:09;;;;;;;3.67;1.85;;;4.90;94.30;;;;;;5049465;28;20044;-78
2021/11/26 04:04:37;;;;;;;3.90;1.90;;;4.90;94.30;;;;;;5051632;28;20123;-78
2021/11/26 04:07:04;;;;;;;4.05;2.22;;;4.90;94.30;;;;;;5062530;28;20465;-79
2021/11/26 04:09:31;;;;;;;2.70;1.63;;;4.90;94.30;;;;;;5049224;28;20040;-78
2021/11/26 04:11:59;;;;;;;3.55;1.92;;;5.00;94.30;;;;;;5049405;28;20180;-78
2021/11/26 04:14:38;;;;;;;3.58;1.73;;;5.00;94.30;;;;;;5051814;28;20078;-78
2021/11/26 04:17:07;;;;;;;3.25;1.75;;;5.00;94.60;;;;;;5031934;28;20231;-77
2021/11/26 04:19:34;;;;;;;3.00;1.50;;;5.00;94.30;;;;;;5049415;28;20448;-78
2021/11/26 04:22:01;;;;;;;4.07;2.03;;;5.00;94.30;;;;;;5049072;28;20743;-78
2021/11/26 04:24:28;;;;;;;5.30;2.05;;;5.10;94.30;;;;;;5031763;28;20048;-78
2021/11/26 04:26:55;;;;;;;3.47;1.63;;;5.10;94.30;;;;;;5048421;28;20057;-78
2021/11/26 04:29:22;;;;;;;3.22;1.67;;;5.10;94.30;;;;;;5048839;28;20546;-78
2021/11/26 04:31:49;;;;;;;4.65;1.63;;;5.10;94.30;;;;;;5067021;28;20049;-78
2021/11/26 04:34:16;;;;;;;3.50;1.77;;;5.10;94.30;;;;;;5082031;28;20075;-78
2021/11/26 04:36:44;;;;;;;3.08;1.73;;;5.10;94.30;;;;;;5066428;28;20134;-78
2021/11/26 04:39:10;;;;;;;4.05;1.50;;;5.10;94.30;;;;;;5047248;28;20140;-78
2021/11/26 04:41:38;;;;;;;2.47;1.25;;;5.10;94.30;;;;;;5064951;28;20581;-79
2021/11/26 04:44:05;;;;;;;1.95;0.90;;;5.20;94.30;;;;;;5048712;28;20036;-78
2021/11/26 04:46:32;;;;;;;2.33;1.02;;;5.20;94.20;;;;;;5024409;28;20853;-78
2021/11/26 04:48:59;;;;;;;2.47;1.13;;;5.20;94.20;;;;;;5064326;28;20089;-79
2021/11/26 04:51:26;;;;;;;3.38;1.10;;;5.20;94.20;;;;;;5048556;28;20110;-78
2021/11/26 04:53:53;;;;;;;6.90;1.55;;;5.20;94.20;;;;;;5048250;28;20098;-78
2021/11/26 04:56:20;;;;;;;1.83;0.63;;;5.20;94.20;;;;;;5048504;28;20044;-77
2021/11/26 04:58:47;;;;;;;3.00;1.05;;;5.20;94.20;;;;;;5024520;28;20047;-78
2021/11/26 05:01:14;;;;;;;1.98;0.70;;;5.20;94.20;;;;;;5047749;28;20055;-78
2021/11/26 05:03:42;;;;;;;2.33;0.80;;;5.20;94.20;;;;;;5031764;28;20512;-78
2021/11/26 05:06:09;;;;;;;4.18;0.85;;;5.20;94.20;;;;;;5047513;28;20064;-78
2021/11/26 05:08:36;;;;;;;3.10;0.70;;;5.20;94.20;;;;;;5047446;28;20123;-78
2021/11/26 05:11:03;;;;;;;1.50;0.68;;;5.20;94.20;;;;;;5048289;28;20086;-78
2021/11/26 05:13:32;;;;;;;1.60;0.60;;;5.20;94.20;;;;;;5047091;28;20114;-78
2021/11/26 05:16:00;;;;;;;2.38;0.65;;;5.20;94.20;;;;;;5030612;28;20040;-78
2021/11/26 05:18:27;;;;;;;2.05;0.45;;;5.20;94.20;;;;;;5048210;28;20037;-78
2021/11/26 05:20:54;;;;;;;1.00;0.30;;;5.20;94.20;;;;;;5064925;28;20532;-78
2021/11/26 05:23:23;;;;;;;1.40;0.40;;;5.10;94.20;;;;;;5049252;28;20155;-77
2021/11/26 05:25:51;;;;;;;2.28;0.50;;;5.10;94.30;;;;;;5086323;28;20075;-78
2021/11/26 05:28:18;;;;;;;1.17;0.30;;;5.10;94.30;;;;;;5068508;28;20049;-78
2021/11/26 05:30:45;;;;;;;1.52;0.20;;;5.10;94.30;;;;;;5069005;28;20075;-78
2021/11/26 05:33:12;;;;;;;0.82;0.20;;;5.10;94.30;;;;;;5068403;28;20454;-78
2021/11/26 05:35:40;;;;;;;2.50;0.32;;;5.00;94.30;;;;;;5049335;28;20040;-78
2021/11/26 05:38:07;;;;;;;1.30;0.35;;;5.00;94.30;;;;;;5047779;28;20045;-78
2021/11/26 05:40:34;;;;;;;2.25;0.50;;;5.00;94.30;;;;;;5031085;28;20086;-78
2021/11/26 05:43:02;;;;;;;1.05;0.20;;;5.00;94.30;;;;;;5047529;28;20098;-78
2021/11/26 05:45:30;;;;;;;0.40;0.10;;;5.00;94.30;;;;;;5037439;28;20064;-77
2021/11/26 05:47:57;;;;;;;2.40;0.30;;;4.90;94.30;;;;;;5031190;28;20500;-78
2021/11/26 05:50:25;;;;;;;0.47;0.13;;;5.00;94.40;;;;;;5063732;28;20090;-78
2021/11/26 05:52:52;;;;;;;0.43;0.10;;;5.00;94.40;;;;;;5047559;28;20153;-78
2021/11/26 05:55:22;;;;;;;0.80;0.22;;;5.00;94.40;;;;;;5031288;28;20052;-78
2021/11/26 05:57:51;;;;;;;1.17;0.47;;;5.00;94.40;;;;;;5064765;28;20044;-78
2021/11/26 06:00:21;;;;;;;1.33;0.28;;;5.00;94.40;;;;;;5066916;28;20118;-78
2021/11/26 06:02:48;;;;;;;2.60;0.30;;;5.00;94.40;;;;;;5084641;28;20080;-77
2021/11/26 06:05:16;;;;;;;1.75;0.63;;;4.90;94.30;;;;;;5068188;28;20053;-79
2021/11/26 06:07:43;;;;;;;1.98;0.20;;;5.00;94.40;;;;;;5050431;28;20100;-80
2021/11/26 06:10:13;;;;;;;1.30;0.22;;;4.90;94.30;;;;;;5034637;28;20484;-79
2021/11/26 06:12:41;;;;;;;1.70;0.30;;;4.90;94.30;;;;;;5067069;28;20186;-78
2021/11/26 06:15:10;;;;;;;2.03;0.40;;;5.00;94.30;;;;;;5067497;28;20040;-78
2021/11/26 06:17:42;;;;;;;1.27;0.30;;;4.90;94.30;;;;;;5067084;28;20389;-79
2021/11/26 06:20:10;;;;;;;1.52;0.47;;;5.00;94.30;;;;;;5050865;28;20040;-78
2021/11/26 06:22:40;;;;;;;1.63;0.60;;;4.90;94.30;;;;;;5051113;28;20126;-79
2021/11/26 06:25:12;;;;;;;2.10;0.50;;;4.90;94.30;;;;;;5050735;28;20129;-78
2021/11/26 06:27:40;;;;;;;1.33;0.40;;;4.90;94.30;;;;;;5049581;28;20109;-79
2021/11/26 06:30:11;;;;;;;2.90;0.55;;;4.90;94.30;;;;;;5060701;28;20044;-79
2021/11/26 06:32:39;;;;;;;2.72;0.63;;;4.90;94.30;;;;;;5049646;28;20098;-78
2021/11/26 06:35:07;;;;;;;2.42;0.70;;;4.90;94.30;;;;;;5071436;28;20087;-78
2021/11/26 06:37:34;;;;;;;1.58;0.60;;;4.90;94.30;;;;;;5067187;28;20052;-78
2021/11/26 06:40:03;;;;;;;1.83;0.80;;;4.90;94.30;;;;;;5066856;28;20048;-78
2021/11/26 06:42:30;;;;;;;2.67;0.88;;;5.00;94.30;;;;;;5065641;28;20105;-78
2021/11/26 06:44:58;;;;;;;1.95;0.77;;;5.00;94.30;;;;;;5050691;28;20484;-79
2021/11/26 06:47:25;;;;;;;4.90;1.20;;;5.00;94.30;;;;;;5067052;28;20099;-79
2021/11/26 06:49:52;;;;;;;2.58;0.90;;;5.00;94.30;;;;;;5056486;28;20068;-79
2021/11/26 06:52:19;;;;;;;2.80;0.90;;;5.00;94.30;;;;;;5034576;28;20072;-79
2021/11/26 06:54:47;;;;;;;1.88;0.75;;;5.00;94.30;;;;;;5033576;28;20466;-78
2021/11/26 06:57:14;;;;;;;2.35;0.85;;;5.00;94.30;;;;;;5024098;28;20064;-79
2021/11/26 06:59:43;;;;;;;3.25;0.80;;;5.00;94.30;;;;;;5051414;28;20048;-79
2021/11/26 07:02:10;;;;;;;4.28;0.68;;;5.00;94.30;;;;;;5084588;28;20599;-79
2021/11/26 07:04:38;;;;;;;4.88;1.50;;;5.00;94.30;;;;;;5048576;28;20515;-79
2021/11/26 07:07:05;;;;;;;1.45;0.60;;;5.00;94.30;;;;;;5025358;28;20049;-79
2021/11/26 07:09:32;;;;;;;1.63;0.85;;;5.00;94.30;;;;;;5056808;28;20033;-79
2021/11/26 07:11:59;;;;;;;1.45;0.50;;;5.00;94.30;;;;;;5066554;28;20057;-79
2021/11/26 07:14:41;;;;;;;1.10;0.60;;;5.00;94.30;;;;;;5081933;28;20064;-79
2021/11/26 07:17:09;;;;;;;3.38;0.73;;;5.00;94.30;;;;;;5066284;28;20140;-79
2021/11/26 07:19:38;;;;;;;2.67;0.70;;;5.00;94.30;;;;;;5066182;28;20124;-78
2021/11/26 07:22:06;;;;;;;3.38;0.77;;;5.00;94.30;;;;;;5066626;28;20048;-78
2021/11/26 07:24:35;;;;;;;3.10;0.60;;;5.00;94.30;;;;;;5082341;28;20102;-77
2021/11/26 07:27:02;;;;;;;2.05;0.88;;;5.00;94.40;;;;;;5031825;28;20513;-77
2021/11/26 07:29:30;;;;;;;3.60;0.77;;;5.00;94.40;;;;;;5066058;28;20102;-79
2021/11/26 07:31:57;;;;;;;1.95;0.60;;;5.00;94.40;;;;;;5066155;28;20388;-79
2021/11/26 07:34:26;;;;;;;2.67;0.88;;;5.00;94.40;;;;;;5066240;28;20191;-87
2021/11/26 07:36:54;;;;;;;3.75;1.08;;;5.00;94.40;;;;;;5064815;28;20044;-80
2021/11/26 07:39:23;;;;;;;5.75;1.50;;;5.00;94.40;;;;;;5057832;28;20508;-79
2021/11/26 07:41:51;;;;;;;4.15;1.20;;;5.00;94.40;;;;;;5033353;28;20052;-80
2021/11/26 07:44:18;;;;;;;2.97;0.98;;;5.00;94.40;;;;;;5068543;28;20068;-79
2021/11/26 07:46:45;;;;;;;3.47;1.00;;;5.00;94.30;;;;;;5031997;28;20890;-79
2021/11/26 07:49:12;;;;;;;5.85;1.42;;;5.00;94.30;;;;;;5049260;28;20047;-79
2021/11/26 07:51:39;;;;;;;3.30;1.73;;;5.00;94.30;;;;;;5049588;28;20037;-79
2021/11/26 07:54:06;;;;;;;4.25;1.13;;;5.00;94.30;;;;;;5049304;28;20036;-79
2021/11/26 07:56:35;;;;;;;4.40;1.65;;;5.00;94.30;;;;;;5049486;28;20135;-79
2021/11/26 07:59:03;;;;;;;4.80;2.03;;;5.00;94.30;;;;;;5048359;28;20043;-79
2021/11/26 08:01:30;;;;;;;5.55;1.98;;;4.90;94.30;;;;;;5065261;28;20144;-79
2021/11/26 08:03:57;;;;;;;4.72;2.22;;;4.90;94.30;;;;;;5049748;28;20044;-79
2021/11/26 08:06:24;;;;;;;6.47;2.05;;;4.90;94.30;;;;;;5073567;28;20083;-79
2021/11/26 08:08:51;;;;;;;6.70;2.72;;;4.90;94.30;;;;;;5048530;28;20048;-79
2021/11/26 08:11:18;;;;;;;4.40;1.60;;;4.90;94.40;;;;;;5027065;28;20044;-79
2021/11/26 08:13:45;;;;;;;4.28;1.83;;;4.90;94.40;;;;;;5047468;28;20055;-79
2021/11/26 08:16:13;;;;;;;5.45;2.13;;;4.90;94.40;;;;;;5047195;28;20049;-79
2021/11/26 08:18:40;;;;;;;6.93;2.30;;;4.90;94.40;;;;;;5049171;28;20041;-79
2021/11/26 08:21:08;;;;;;;7.75;2.85;;;4.90;94.30;;;;;;5048089;28;20036;-79
2021/11/26 08:23:35;;;;;;;4.53;1.92;;;5.00;94.30;;;;;;5064887;28;20447;-79
2021/11/26 08:26:02;;;;;;;5.70;2.17;;;5.00;94.30;;;;;;5049727;28;20515;-79
2021/11/26 08:28:29;;;;;;;4.68;1.83;;;5.00;94.20;;;;;;5065965;28;20125;-79
2021/11/26 08:30:57;;;;;;;3.70;1.83;;;5.10;94.20;;;;;;5065351;28;20084;-79
2021/11/26 08:33:25;;;;;;;4.85;1.77;;;5.20;94.20;;;;;;5065549;28;20180;-79
2021/11/26 08:35:53;;;;;;;3.67;1.60;;;5.20;94.20;;;;;;5041570;28;20131;-79
2021/11/26 08:38:21;;;;;;;5.68;2.30;;;5.20;94.10;;;;;;5064724;28;20098;-79
2021/11/26 08:40:48;;;;;;;5.32;2.15;;;5.20;94.00;;;;;;5065762;28;20039;-79
2021/11/26 08:43:16;;;;;;;8.48;2.20;;;5.30;94.00;;;;;;5047797;28;20048;-79
2021/11/26 08:45:43;;;;;;;6.05;1.90;;;5.30;94.00;;;;;;5063774;28;20097;-79
2021/11/26 08:48:11;;;;;;;8.27;3.38;;;5.30;93.90;;;;;;5079393;28;20094;-78
2021/11/26 08:50:38;;;;;;;9.50;3.75;;;5.30;93.90;;;;;;5048017;28;20056;-79
2021/11/26 08:53:06;;;;;;;7.35;2.65;;;5.30;93.80;;;;;;5039750;28;20040;-79
2021/11/26 08:55:33;;;;;;;7.47;2.13;;;5.30;93.80;;;;;;5065012;28;20041;-79
2021/11/26 08:58:02;;;;;;;6.30;2.30;;;5.30;93.80;;;;;;5064769;28;20044;-78
2021/11/26 09:00:32;;;;;;;7.97;2.90;;;5.40;93.80;;;;;;5064297;28;20584;-79
2021/11/26 09:03:01;;;;;;;9.20;2.88;;;5.40;93.70;;;;;;5049738;28;20045;-79
2021/11/26 09:05:28;;;;;;;9.15;2.75;;;5.40;93.70;;;;;;5064365;28;20101;-79
2021/11/26 09:08:00;;;;;;;10.65;2.70;;;5.40;93.70;;;;;;5080878;28;20048;-79
2021/11/26 09:10:29;;;;;;;6.78;2.58;;;5.40;93.70;;;;;;5064041;28;20501;-79
2021/11/26 09:12:56;;;;;;;9.98;3.17;;;5.40;93.60;;;;;;5063910;28;20189;-79
2021/11/26 09:15:23;;;;;;;9.00;3.50;;;5.40;93.50;;;;;;5062522;28;20052;-78
2021/11/26 09:17:52;;;;;;;8.32;2.50;;;5.40;93.50;;;;;;5063788;28;20052;-79
2021/11/26 09:20:19;;;;;;;9.57;2.55;;;5.40;93.50;;;;;;5030608;28;20041;-78
2021/11/26 09:22:47;;;;;;;8.40;2.50;;;5.40;93.50;;;;;;5061764;28;20052;-79
2021/11/26 09:25:15;;;;;;;9.45;2.17;;;5.40;93.50;;;;;;5046435;28;20488;-79
2021/11/26 09:27:43;;;;;;;6.47;2.03;;;5.40;93.50;;;;;;5016826;28;20114;-79
2021/11/26 09:30:17;;;;;;;7.95;2.35;;;5.50;93.50;;;;;;5045831;28;20047;-79
2021/11/26 09:32:46;;;;;;;9.82;3.10;;;5.50;93.40;;;;;;5063523;28;20036;-79
2021/11/26 09:35:14;;;;;;;11.30;3.50;;;5.50;93.40;;;;;;5067650;28;20036;-79
2021/11/26 09:37:41;;;;;;;11.10;3.38;;;5.40;93.20;;;;;;5067820;28;20052;-79
2021/11/26 09:40:10;;;;;;;10.55;3.25;;;5.40;93.20;;;;;;5050739;28;20468;-80
2021/11/26 09:42:42;;;;;;;8.43;2.67;;;5.40;93.10;;;;;;5051741;28;20125;-79
2021/11/26 09:45:12;;;;;;;9.00;2.53;;;5.40;93.20;;;;;;5067680;28;20045;-79
2021/11/26 09:47:39;;;;;;;9.38;2.63;;;5.30;93.20;;;;;;5084734;28;20048;-79
2021/11/26 09:50:08;;;;;;;10.43;2.97;;;5.30;93.20;;;;;;5048855;28;20045;-79
2021/11/26 09:52:39;;;;;;;7.68;2.75;;;5.30;93.20;;;;;;5083928;28;20147;-80
2021/11/26 09:55:08;;;;;;;7.07;2.38;;;5.30;93.20;;;;;;5051898;28;20052;-80
2021/11/26 09:57:37;;;;;;;8.88;3.10;;;5.30;93.20;;;;;;5051660;28;20068;-80
2021/11/26 10:00:07;;;;;;;8.45;2.45;;;5.30;93.10;;;;;;5049921;28;20039;-80
2021/11/26 10:02:34;;;;;;;10.63;2.60;;;5.30;93.10;;;;;;5083978;28;20040;-80
2021/11/26 10:05:07;;;;;;;7.60;2.33;;;5.40;93.20;;;;;;5067670;28;20388;-80
2021/11/26 10:07:50;;;;;;;7.20;3.17;;;5.50;93.10;;;;;;5067406;28;20040;-80
2021/11/26 10:10:23;;;;;;;9.10;2.58;;;5.50;92.90;;;;;;5067448;28;20040;-81
2021/11/26 10:13:22;;;;;;;7.38;2.53;;;5.50;92.90;;;;;;5067018;28;20712;-81
2021/11/26 10:15:50;;;;;;;5.80;1.80;;;5.60;92.90;;;;;;5009365;28;20472;-80
2021/11/26 10:18:26;;;;;;;10.20;2.45;;;5.60;92.80;;;;;;5067916;28;20122;-80
2021/11/26 10:21:02;;;;;;;7.15;2.53;;;5.70;92.60;;;;;;5067657;28;20087;-81
2021/11/26 10:23:37;;;;;;;8.23;2.22;;;5.70;92.50;;;;;;5067887;28;20063;-81
2021/11/26 10:26:24;;;;;;;4.57;2.00;;;5.70;92.50;;;;;;5067058;28;20052;-81
2021/11/26 10:29:01;;;;;;;6.63;2.33;;;5.70;92.50;;;;;;5085280;28;20067;-81
2021/11/26 10:31:31;;;;;;;6.28;1.83;;;5.70;92.40;;;;;;5067843;28;20064;-81
2021/11/26 10:34:25;;;;;;;5.93;2.90;;;5.70;92.30;;;;;;5039866;28;20099;-81
2021/11/26 10:36:53;;;;;;;8.25;2.30;;;5.80;92.30;;;;;;5067317;28;20401;-80
2021/11/26 10:39:22;;;;;;;7.72;2.60;;;5.90;92.20;;;;;;5067215;28;20036;-80
2021/11/26 10:41:53;;;;;;;7.07;2.38;;;6.00;92.00;;;;;;5066751;28;20060;-80
2021/11/26 10:44:33;;;;;;;4.85;2.42;;;6.10;91.90;;;;;;5065568;28;20116;-81
2021/11/26 10:47:17;;;;;;;4.40;1.98;;;6.10;91.80;;;;;;5050902;28;20072;-81
2021/11/26 10:50:15;;;;;;;5.55;2.38;;;6.20;91.70;;;;;;5059394;28;20086;-80
2021/11/26 10:58:18;;;;;;;5.00;1.80;;;6.30;91.40;;;;;;5052547;28;20074;-80
2021/11/26 11:00:46;;;;;;;3.08;1.25;;;6.30;91.40;;;;;;5066318;28;20041;-81
2021/11/26 11:03:14;;;;;;;7.90;2.42;;;6.30;91.30;;;;;;5042337;28;20045;-81
2021/11/26 11:05:41;;;;;;;7.57;2.22;;;6.30;90.90;;;;;;5041317;28;20105;-81
2021/11/26 11:08:21;;;;;;;7.68;2.45;;;6.30;90.90;;;;;;5041390;28;20044;-81
2021/11/26 11:10:48;;;;;;;6.03;1.88;;;6.30;90.90;;;;;;5067838;28;20056;-81
2021/11/26 11:13:23;;;;;;;6.57;1.70;;;6.30;90.80;;;;;;5050160;28;20087;-81
2021/11/26 11:15:51;;;;;;;4.78;1.70;;;6.30;90.90;;;;;;5061452;28;20600;-81
2021/11/26 11:18:20;;;;;;;6.13;2.28;;;6.30;90.90;;;;;;5050576;28;20036;-81
2021/11/26 11:20:47;;;;;;;6.18;1.73;;;6.40;91.00;;;;;;5076677;28;20153;-80
2021/11/26 11:23:15;;;;;;;3.80;1.42;;;6.40;90.90;;;;;;5050599;28;20060;-81
2021/11/26 11:25:42;;;;;;;7.20;2.00;;;6.40;91.00;;;;;;5050331;28;20037;-81
2021/11/26 11:28:15;;;;;;;7.15;1.90;;;6.40;90.60;;;;;;5067009;28;20537;-80
2021/11/26 11:30:42;;;;;;;6.57;2.53;;;6.40;90.50;;;;;;5049171;28;20477;-81
2021/11/26 11:33:10;;;;;;;5.68;2.10;;;6.30;90.50;;;;;;5083033;28;20049;-81
2021/11/26 11:35:38;;;;;;;6.97;1.95;;;6.40;90.50;;;;;;5067036;28;20040;-80
2021/11/26 11:38:09;;;;;;;4.10;1.63;;;6.40;90.50;;;;;;5049478;28;20480;-82
2021/11/26 11:40:49;;;;;;;4.80;1.63;;;6.40;90.60;;;;;;5059134;28;20049;-82
2021/11/26 11:43:22;;;;;;;5.78;2.10;;;6.50;90.50;;;;;;5065461;28;20514;-82
2021/11/26 11:46:02;;;;;;;3.90;1.77;;;6.50;90.30;;;;;;5100304;28;20052;-81
2021/11/26 11:48:36;;;;;;;7.05;2.25;;;6.50;90.30;;;;;;5056930;28;20060;-82
2021/11/26 11:51:06;;;;;;;8.48;2.75;;;6.50;90.30;;;;;;5064602;28;20492;-83
2021/11/26 11:53:36;;;;;;;5.60;2.00;;;6.50;90.00;;;;;;5065282;28;20052;-83
2021/11/26 11:56:07;;;;;;;9.00;2.47;;;6.50;90.10;;;;;;5033154;28;20483;-81
2021/11/26 11:58:48;;;;;;;4.20;1.52;;;6.50;90.20;;;;;;5065324;28;20044;-80
2021/11/26 12:01:28;;;;;;;6.55;1.85;;;6.60;90.20;;;;;;5064522;28;20032;-82
2021/11/26 12:03:58;;;;;;;5.43;1.67;;;6.60;90.10;;;;;;5065084;28;20131;-84
2021/11/26 12:06:39;;;;;;;6.55;1.67;;;6.70;90.10;;;;;;5048783;28;20063;-83
2021/11/26 12:09:07;;;;;;;5.40;1.70;;;6.70;89.80;;;;;;5082373;28;20052;-83
2021/11/26 12:11:36;;;;;;;5.18;1.38;;;6.70;89.90;;;;;;5066170;28;20120;-83
2021/11/26 12:14:09;;;;;;;5.57;1.55;;;6.80;90.10;;;;;;5065357;28;20050;-83
2021/11/26 12:16:47;;;;;;;8.65;2.08;;;6.80;90.00;;;;;;5065325;28;20114;-83
2021/11/26 12:19:20;;;;;;;4.45;1.60;;;6.70;89.90;;;;;;5064119;28;20044;-83
2021/11/26 12:21:54;;;;;;;8.23;2.45;;;6.60;90.00;;;;;;5066228;28;20063;-81
2021/11/26 12:24:31;;;;;;;9.32;2.50;;;6.50;89.80;;;;;;5081987;28;20059;-83
2021/11/26 12:27:00;;;;;;;7.93;1.95;;;6.40;89.70;;;;;;5065939;28;20052;-83
2021/11/26 12:29:40;;;;;;;4.88;2.10;;;6.30;90.00;;;;;;5046392;28;20043;-82
2021/11/26 12:32:14;;;;;;;6.75;2.72;;;6.20;90.10;;;;;;5056007;28;20059;-81
2021/11/26 12:34:52;;;;;;;9.02;3.35;;;6.10;90.10;;;;;;5065120;28;20048;-83
2021/11/26 12:37:25;;;;;;;6.20;2.40;;;5.90;90.10;;;;;;5065691;28;20052;-80
2021/11/26 12:39:57;;;;;;;6.18;2.60;;;5.80;90.30;;;;;;5064346;28;20505;-83
2021/11/26 12:42:26;;;;;;;6.97;2.50;;;5.70;90.50;;;;;;5046969;28;20032;-83
2021/11/26 12:45:12;;;;;;;7.20;2.75;;;5.60;90.60;;;;;;5046200;28;20459;-83
2021/11/26 12:47:41;;;;;;;3.40;1.98;;;5.60;90.70;;;;;;5060534;28;20064;-83
2021/11/26 12:53:13;;;;;;;7.93;2.60;;;5.40;90.90;;;;;;5060387;28;20040;-81
2021/11/26 12:56:06;;;;;;;7.13;3.47;;;5.30;91.00;;;;;;5060962;28;20085;-81
2021/11/26 12:58:40;;;;;;;6.50;3.00;;;5.30;91.20;;;;;;5052765;28;20131;-80
2021/11/26 13:01:09;;;;;;;7.05;3.17;;;5.20;91.60;;;;;;5063088;28;20042;-80
2021/11/26 13:03:47;;;;;;;6.93;3.03;;;5.10;91.40;;;;;;5051641;28;20049;-81
2021/11/26 13:06:28;;;;;;;5.82;2.63;;;5.10;91.50;;;;;;5037821;28;20629;-82
2021/11/26 13:09:04;;;;;;;4.93;2.05;;;5.00;91.60;;;;;;5055939;28;20076;-80
2021/11/26 13:11:47;;;;;;;5.28;2.15;;;5.00;91.70;;;;;;5062548;28;20048;-81
2021/11/26 13:14:51;;;;;;;4.85;2.13;;;5.00;91.80;;;;;;5082920;28;20113;-80
2021/11/26 13:17:20;;;;;;;5.88;1.75;;;4.90;91.80;;;;;;5046186;28;20537;-79
2021/11/26 13:20:01;;;;;;;5.22;1.73;;;4.90;91.90;;;;;;5061843;28;20056;-84